Terminal Aerodrome Forecast
Issued by NWS

Home | Current Version | Previous Version | Text Only | Print | Product List | Glossary On
Versions: 1 2 3 4 5 6 7 8 9 10 11 12
000
FTUS45 KABQ 021700
TAFSAF
TAF
KSAF 021734Z 0218/0318 35007KT P6SM FEW090
     FM022000 25010KT 6SM FU FEW030 SCT090
     FM030200 10006KT P6SM SKC
     FM031100 01008KT P6SM SKC=

USA.gov is the U.S. government's official web portal to all federal, state and local government web resources and services.